Nassau, New York
Current Conditions -  °F | °C
As of 7:54 PM on Friday 28 Nov 2014 (Local Time) from KPSF Reporting Station
Overcast Overcast  
Wind Chill: 20°   Ceiling: 4400
Heat Index: 20°   Visibility: 10mi
Dew Point: 12°   Wind: 3mph
Humidity: 71%   Direction: NA
Pressure: 30.13"   Gusts: NA
Location:  42.52°N, 73.61°W
Report Text: KPSF 290054Z AUTO VRB03KT 10SM FEW030 OVC044 M07/M11 A3013 RMK AO2 SLP224 T10671111
Loading
Personal Weather Stations






























Interactive Weather Map New forecast layout! Learn more

10-Day Weather Forecast

Advertisements
Track Severe Weather on mobile